sensor_id;sensor_type;location;lat;lon;timestamp;pressure;altitude;pressure_sealevel;temperature;humidity
19843;BME280;10082;51.038;6.992;2023-02-14T00:00:34;54381.50;;;-144.33;100.00
19843;BME280;10082;51.038;6.992;2023-02-14T00:03:00;55939.44;;;-144.33;100.00
19843;BME280;10082;51.038;6.992;2023-02-14T00:05:27;57644.97;;;-144.33;100.00
19843;BME280;10082;51.038;6.992;2023-02-14T00:07:54;58951.88;;;-144.33;100.00
19843;BME280;10082;51.038;6.992;2023-02-14T00:10:21;60414.25;;;-144.33;100.00
19843;BME280;10082;51.038;6.992;2023-02-14T00:12:50;61875.16;;;-144.33;100.00
19843;BME280;10082;51.038;6.992;2023-02-14T00:15:17;62901.09;;;-144.33;100.00
19843;BME280;10082;51.038;6.992;2023-02-14T00:17:50;64215.72;;;-144.33;100.00
19843;BME280;10082;51.038;6.992;2023-02-14T00:20:19;65469.09;;;-144.33;100.00
19843;BME280;10082;51.038;6.992;2023-02-14T00:22:46;66531.78;;;-144.33;100.00
19843;BME280;10082;51.038;6.992;2023-02-14T00:25:14;67833.69;;;-144.33;100.00
19843;BME280;10082;51.038;6.992;2023-02-14T00:27:41;69151.91;;;-144.33;100.00
19843;BME280;10082;51.038;6.992;2023-02-14T00:30:12;70809.31;;;-144.33;100.00
19843;BME280;10082;51.038;6.992;2023-02-14T00:32:41;72451.44;;;-144.33;100.00
19843;BME280;10082;51.038;6.992;2023-02-14T00:35:09;74126.13;;;-144.33;100.00
19843;BME280;10082;51.038;6.992;2023-02-14T00:37:39;75983.09;;;-144.33;100.00
19843;BME280;10082;51.038;6.992;2023-02-14T00:40:07;77715.16;;;-144.33;100.00
19843;BME280;10082;51.038;6.992;2023-02-14T00:42:34;79643.66;;;-144.33;100.00
19843;BME280;10082;51.038;6.992;2023-02-14T00:45:02;80959.81;;;-144.33;100.00
19843;BME280;10082;51.038;6.992;2023-02-14T00:47:31;82036.63;;;-144.33;100.00
19843;BME280;10082;51.038;6.992;2023-02-14T00:49:58;82486.19;;;-144.33;100.00
19843;BME280;10082;51.038;6.992;2023-02-14T00:52:27;82925.84;;;-144.33;100.00
19843;BME280;10082;51.038;6.992;2023-02-14T00:54:56;83449.50;;;-144.33;100.00
19843;BME280;10082;51.038;6.992;2023-02-14T00:57:23;83371.53;;;-144.33;100.00
19843;BME280;10082;51.038;6.992;2023-02-14T00:59:51;83819.28;;;-144.33;100.00
19843;BME280;10082;51.038;6.992;2023-02-14T01:02:19;83533.44;;;-144.33;100.00
19843;BME280;10082;51.038;6.992;2023-02-14T01:04:48;83399.53;;;-144.33;100.00
19843;BME280;10082;51.038;6.992;2023-02-14T01:07:15;83253.63;;;-144.33;100.00
19843;BME280;10082;51.038;6.992;2023-02-14T01:09:42;83365.53;;;-144.33;100.00
19843;BME280;10082;51.038;6.992;2023-02-14T01:12:09;83339.56;;;-144.33;100.00
19843;BME280;10082;51.038;6.992;2023-02-14T01:14:36;83597.41;;;-144.33;100.00
19843;BME280;10082;51.038;6.992;2023-02-14T01:17:03;83697.34;;;-144.33;100.00
19843;BME280;10082;51.038;6.992;2023-02-14T01:19:30;84087.13;;;-144.33;100.00
19843;BME280;10082;51.038;6.992;2023-02-14T01:22:00;84347.03;;;-144.33;100.00
19843;BME280;10082;51.038;6.992;2023-02-14T01:24:28;84756.88;;;-144.33;100.00
19843;BME280;10082;51.038;6.992;2023-02-14T01:26:55;85260.75;;;-144.33;100.00
19843;BME280;10082;51.038;6.992;2023-02-14T01:29:22;86028.72;;;-144.33;100.00
19843;BME280;10082;51.038;6.992;2023-02-14T01:31:51;86382.72;;;-144.33;100.00
19843;BME280;10082;51.038;6.992;2023-02-14T01:34:18;86932.81;;;-144.33;100.00
19843;BME280;10082;51.038;6.992;2023-02-14T01:36:45;87398.97;;;-144.33;100.00
19843;BME280;10082;51.038;6.992;2023-02-14T01:39:15;87925.19;;;-144.33;100.00
19843;BME280;10082;51.038;6.992;2023-02-14T01:41:45;88363.44;;;-144.33;100.00
19843;BME280;10082;51.038;6.992;2023-02-14T01:47:19;90078.81;;;-144.33;100.00
19843;BME280;10082;51.038;6.992;2023-02-14T01:49:49;90711.50;;;-144.33;100.00
19843;BME280;10082;51.038;6.992;2023-02-14T01:52:19;91831.00;;;-144.33;100.00
19843;BME280;10082;51.038;6.992;2023-02-14T01:54:51;92129.44;;;-144.33;100.00
19843;BME280;10082;51.038;6.992;2023-02-14T01:57:21;92860.63;;;-144.33;100.00
19843;BME280;10082;51.038;6.992;2023-02-14T01:59:54;93668.09;;;-144.33;100.00
19843;BME280;10082;51.038;6.992;2023-02-14T02:02:42;94239.22;;;-144.33;100.00
19843;BME280;10082;51.038;6.992;2023-02-14T02:05:09;95161.22;;;-144.33;100.00
19843;BME280;10082;51.038;6.992;2023-02-14T02:07:36;95941.06;;;-144.33;100.00
19843;BME280;10082;51.038;6.992;2023-02-14T02:10:07;97074.03;;;-144.33;100.00
19843;BME280;10082;51.038;6.992;2023-02-14T02:12:35;98227.38;;;-144.33;100.00
19843;BME280;10082;51.038;6.992;2023-02-14T02:15:03;99342.91;;;-144.33;100.00
19843;BME280;10082;51.038;6.992;2023-02-14T02:17:38;100701.63;;;-144.33;100.00
19843;BME280;10082;51.038;6.992;2023-02-14T02:23:38;103723.75;;;-144.33;100.00
19843;BME280;10082;51.038;6.992;2023-02-14T02:29:35;104899.09;;;-144.33;100.00
19843;BME280;10082;51.038;6.992;2023-02-14T02:32:32;105811.44;;;-144.33;100.00
19843;BME280;10082;51.038;6.992;2023-02-14T02:35:16;107003.47;;;-144.33;100.00
19843;BME280;10082;51.038;6.992;2023-02-14T02:37:57;107735.31;;;-144.33;100.00
19843;BME280;10082;51.038;6.992;2023-02-14T02:40:42;108461.28;;;-144.33;100.00
19843;BME280;10082;51.038;6.992;2023-02-14T02:43:19;109394.56;;;-144.33;100.00
19843;BME280;10082;51.038;6.992;2023-02-14T02:45:57;110231.50;;;-144.33;100.00
19843;BME280;10082;51.038;6.992;2023-02-14T02:48:47;110511.16;;;-144.33;100.00
19843;BME280;10082;51.038;6.992;2023-02-14T02:51:30;110982.03;;;-144.33;100.00
19843;BME280;10082;51.038;6.992;2023-02-14T02:54:19;111368.44;;;-144.33;100.00
19843;BME280;10082;51.038;6.992;2023-02-14T02:56:58;111762.94;;;-144.33;100.00
19843;BME280;10082;51.038;6.992;2023-02-14T02:59:29;111984.34;;;-144.33;100.00
19843;BME280;10082;51.038;6.992;2023-02-14T03:02:03;112074.91;;;-144.33;100.00
19843;BME280;10082;51.038;6.992;2023-02-14T03:04:32;112169.53;;;-144.33;100.00
19843;BME280;10082;51.038;6.992;2023-02-14T03:07:20;112169.53;;;-144.33;100.00
19843;BME280;10082;51.038;6.992;2023-02-14T03:10:11;112169.53;;;-144.33;100.00
19843;BME280;10082;51.038;6.992;2023-02-14T03:13:12;112169.53;;;-144.33;100.00
19843;BME280;10082;51.038;6.992;2023-02-14T03:16:23;112169.53;;;-144.33;100.00
19843;BME280;10082;51.038;6.992;2023-02-14T03:19:20;112153.44;;;-144.33;100.00
19843;BME280;10082;51.038;6.992;2023-02-14T03:21:53;112165.50;;;-144.33;100.00
19843;BME280;10082;51.038;6.992;2023-02-14T03:24:27;112139.34;;;-144.33;100.00
19843;BME280;10082;51.038;6.992;2023-02-14T03:27:01;112169.53;;;-144.33;100.00
19843;BME280;10082;51.038;6.992;2023-02-14T03:29:41;112169.53;;;-144.33;100.00
19843;BME280;10082;51.038;6.992;2023-02-14T03:32:12;112169.53;;;-144.33;100.00
19843;BME280;10082;51.038;6.992;2023-02-14T03:34:47;112169.53;;;-144.33;100.00
19843;BME280;10082;51.038;6.992;2023-02-14T03:37:21;112169.53;;;-144.33;100.00
19843;BME280;10082;51.038;6.992;2023-02-14T03:39:58;112169.53;;;-144.33;100.00
19843;BME280;10082;51.038;6.992;2023-02-14T03:42:31;112169.53;;;-144.33;100.00
19843;BME280;10082;51.038;6.992;2023-02-14T03:45:03;112169.53;;;-144.33;100.00
19843;BME280;10082;51.038;6.992;2023-02-14T03:47:33;112169.53;;;-144.33;100.00
19843;BME280;10082;51.038;6.992;2023-02-14T03:52:49;112169.53;;;-144.33;100.00
19843;BME280;10082;51.038;6.992;2023-02-14T03:55:25;112169.53;;;-144.33;100.00
19843;BME280;10082;51.038;6.992;2023-02-14T03:57:59;112171.53;;;-144.33;100.00
19843;BME280;10082;51.038;6.992;2023-02-14T04:00:30;112171.53;;;-144.33;100.00
19843;BME280;10082;51.038;6.992;2023-02-14T04:03:05;112171.53;;;-144.33;100.00
19843;BME280;10082;51.038;6.992;2023-02-14T04:05:34;112171.53;;;-144.33;100.00
19843;BME280;10082;51.038;6.992;2023-02-14T04:08:02;112171.53;;;-144.33;100.00
19843;BME280;10082;51.038;6.992;2023-02-14T04:10:37;112171.53;;;-144.33;100.00
19843;BME280;10082;51.038;6.992;2023-02-14T04:13:07;112171.53;;;-144.33;100.00
19843;BME280;10082;51.038;6.992;2023-02-14T04:15:34;112171.53;;;-144.33;100.00
19843;BME280;10082;51.038;6.992;2023-02-14T04:18:01;112171.53;;;-144.33;100.00
19843;BME280;10082;51.038;6.992;2023-02-14T04:20:45;112171.53;;;-144.33;100.00
19843;BME280;10082;51.038;6.992;2023-02-14T04:23:12;112171.53;;;-144.33;100.00
19843;BME280;10082;51.038;6.992;2023-02-14T04:25:41;112171.53;;;-144.33;100.00
19843;BME280;10082;51.038;6.992;2023-02-14T04:28:10;112171.53;;;-144.33;100.00
19843;BME280;10082;51.038;6.992;2023-02-14T04:30:40;112171.53;;;-144.33;100.00
19843;BME280;10082;51.038;6.992;2023-02-14T04:33:08;112171.53;;;-144.33;100.00
19843;BME280;10082;51.038;6.992;2023-02-14T04:35:35;112171.53;;;-144.33;100.00
19843;BME280;10082;51.038;6.992;2023-02-14T04:38:03;112171.53;;;-144.33;100.00
19843;BME280;10082;51.038;6.992;2023-02-14T04:40:30;112171.53;;;-144.33;100.00
19843;BME280;10082;51.038;6.992;2023-02-14T04:42:59;112171.53;;;-144.33;100.00
19843;BME280;10082;51.038;6.992;2023-02-14T04:45:26;112171.53;;;-144.33;100.00
19843;BME280;10082;51.038;6.992;2023-02-14T04:47:53;112171.53;;;-144.33;100.00
19843;BME280;10082;51.038;6.992;2023-02-14T04:50:20;112171.53;;;-144.33;100.00
19843;BME280;10082;51.038;6.992;2023-02-14T04:52:50;112171.53;;;-144.33;100.00
19843;BME280;10082;51.038;6.992;2023-02-14T04:55:17;112171.53;;;-144.33;100.00
19843;BME280;10082;51.038;6.992;2023-02-14T04:57:44;112171.53;;;-144.33;100.00
19843;BME280;10082;51.038;6.992;2023-02-14T05:00:14;112171.53;;;-144.33;100.00
19843;BME280;10082;51.038;6.992;2023-02-14T05:02:41;112171.53;;;-144.33;100.00
19843;BME280;10082;51.038;6.992;2023-02-14T05:05:08;112171.53;;;-144.33;100.00
19843;BME280;10082;51.038;6.992;2023-02-14T05:07:34;112171.53;;;-144.33;100.00
19843;BME280;10082;51.038;6.992;2023-02-14T05:10:02;112171.53;;;-144.33;100.00
19843;BME280;10082;51.038;6.992;2023-02-14T05:12:29;112171.53;;;-144.33;100.00
19843;BME280;10082;51.038;6.992;2023-02-14T05:14:56;112171.53;;;-144.33;100.00
19843;BME280;10082;51.038;6.992;2023-02-14T05:17:25;112171.53;;;-144.33;100.00
19843;BME280;10082;51.038;6.992;2023-02-14T05:19:51;112171.53;;;-144.33;100.00
19843;BME280;10082;51.038;6.992;2023-02-14T05:22:19;112171.53;;;-144.33;100.00
19843;BME280;10082;51.038;6.992;2023-02-14T05:24:46;112171.53;;;-144.33;100.00
19843;BME280;10082;51.038;6.992;2023-02-14T05:27:13;112171.53;;;-144.33;100.00
19843;BME280;10082;51.038;6.992;2023-02-14T05:29:40;112171.53;;;-144.33;100.00
19843;BME280;10082;51.038;6.992;2023-02-14T05:32:07;112171.53;;;-144.33;100.00
19843;BME280;10082;51.038;6.992;2023-02-14T05:34:35;112171.53;;;-144.33;100.00
19843;BME280;10082;51.038;6.992;2023-02-14T05:37:02;112171.53;;;-144.33;100.00
19843;BME280;10082;51.038;6.992;2023-02-14T05:39:29;112171.53;;;-144.33;100.00
19843;BME280;10082;51.038;6.992;2023-02-14T05:41:56;112171.53;;;-144.33;100.00
19843;BME280;10082;51.038;6.992;2023-02-14T05:44:23;112171.53;;;-144.33;100.00
19843;BME280;10082;51.038;6.992;2023-02-14T05:46:50;112171.53;;;-144.33;100.00
19843;BME280;10082;51.038;6.992;2023-02-14T05:49:19;112171.53;;;-144.33;100.00
19843;BME280;10082;51.038;6.992;2023-02-14T05:51:48;112171.53;;;-144.33;100.00
19843;BME280;10082;51.038;6.992;2023-02-14T05:54:15;112171.53;;;-144.33;100.00
19843;BME280;10082;51.038;6.992;2023-02-14T05:56:42;112171.53;;;-144.33;100.00
19843;BME280;10082;51.038;6.992;2023-02-14T05:59:09;112171.53;;;-144.33;100.00
19843;BME280;10082;51.038;6.992;2023-02-14T06:01:38;112171.53;;;-144.33;100.00
19843;BME280;10082;51.038;6.992;2023-02-14T06:04:06;112171.53;;;-144.33;100.00
19843;BME280;10082;51.038;6.992;2023-02-14T06:06:33;112171.53;;;-144.33;100.00
19843;BME280;10082;51.038;6.992;2023-02-14T06:09:01;112171.53;;;-144.33;100.00
19843;BME280;10082;51.038;6.992;2023-02-14T06:11:28;112171.53;;;-144.33;100.00
19843;BME280;10082;51.038;6.992;2023-02-14T06:13:55;112171.53;;;-144.33;100.00
19843;BME280;10082;51.038;6.992;2023-02-14T06:16:22;112171.53;;;-144.33;100.00
19843;BME280;10082;51.038;6.992;2023-02-14T06:18:49;112171.53;;;-144.33;100.00
19843;BME280;10082;51.038;6.992;2023-02-14T06:21:17;112171.53;;;-144.33;100.00
19843;BME280;10082;51.038;6.992;2023-02-14T06:23:44;112171.53;;;-144.33;100.00
19843;BME280;10082;51.038;6.992;2023-02-14T06:26:12;112171.53;;;-144.33;100.00
19843;BME280;10082;51.038;6.992;2023-02-14T06:28:39;112171.53;;;-144.33;100.00
19843;BME280;10082;51.038;6.992;2023-02-14T06:31:07;112171.53;;;-144.33;100.00
19843;BME280;10082;51.038;6.992;2023-02-14T06:33:35;112171.53;;;-144.33;100.00
19843;BME280;10082;51.038;6.992;2023-02-14T06:36:03;112171.53;;;-144.33;100.00
19843;BME280;10082;51.038;6.992;2023-02-14T06:38:30;112171.53;;;-144.33;100.00
19843;BME280;10082;51.038;6.992;2023-02-14T06:41:01;112171.53;;;-144.33;100.00
19843;BME280;10082;51.038;6.992;2023-02-14T06:43:30;112171.53;;;-144.33;100.00
19843;BME280;10082;51.038;6.992;2023-02-14T06:45:57;112171.53;;;-144.33;100.00
19843;BME280;10082;51.038;6.992;2023-02-14T06:48:25;112171.53;;;-144.33;100.00
19843;BME280;10082;51.038;6.992;2023-02-14T06:50:52;112171.53;;;-144.33;100.00
19843;BME280;10082;51.038;6.992;2023-02-14T06:53:19;112171.53;;;-144.33;100.00
19843;BME280;10082;51.038;6.992;2023-02-14T06:55:46;112171.53;;;-144.33;100.00
19843;BME280;10082;51.038;6.992;2023-02-14T06:58:13;112171.53;;;-144.33;100.00
19843;BME280;10082;51.038;6.992;2023-02-14T07:00:42;112171.53;;;-144.33;100.00
19843;BME280;10082;51.038;6.992;2023-02-14T07:03:09;112171.53;;;-144.33;100.00
19843;BME280;10082;51.038;6.992;2023-02-14T07:05:36;112171.53;;;-144.33;100.00
19843;BME280;10082;51.038;6.992;2023-02-14T07:08:04;112171.53;;;-144.33;100.00
19843;BME280;10082;51.038;6.992;2023-02-14T07:10:32;112171.53;;;-144.33;100.00
19843;BME280;10082;51.038;6.992;2023-02-14T07:12:59;112171.53;;;-144.33;100.00
19843;BME280;10082;51.038;6.992;2023-02-14T07:15:27;112171.53;;;-144.33;100.00
19843;BME280;10082;51.038;6.992;2023-02-14T07:17:55;112171.53;;;-144.33;100.00
19843;BME280;10082;51.038;6.992;2023-02-14T07:20:23;112171.53;;;-144.33;100.00
19843;BME280;10082;51.038;6.992;2023-02-14T07:22:50;112171.53;;;-144.33;100.00
19843;BME280;10082;51.038;6.992;2023-02-14T07:25:18;112171.53;;;-144.33;100.00
19843;BME280;10082;51.038;6.992;2023-02-14T07:27:45;112171.53;;;-144.33;100.00
19843;BME280;10082;51.038;6.992;2023-02-14T07:30:13;112171.53;;;-144.33;100.00
19843;BME280;10082;51.038;6.992;2023-02-14T07:32:40;112171.53;;;-144.33;100.00
19843;BME280;10082;51.038;6.992;2023-02-14T07:35:09;112171.53;;;-144.33;100.00
19843;BME280;10082;51.038;6.992;2023-02-14T07:37:36;112171.53;;;-144.33;100.00
19843;BME280;10082;51.038;6.992;2023-02-14T07:40:04;112171.53;;;-144.33;100.00
19843;BME280;10082;51.038;6.992;2023-02-14T07:42:32;112171.53;;;-144.33;100.00
19843;BME280;10082;51.038;6.992;2023-02-14T07:44:59;112169.53;;;-144.33;100.00
19843;BME280;10082;51.038;6.992;2023-02-14T07:47:26;112169.53;;;-144.33;100.00
19843;BME280;10082;51.038;6.992;2023-02-14T07:49:53;112169.53;;;-144.33;100.00
19843;BME280;10082;51.038;6.992;2023-02-14T07:52:21;112169.53;;;-144.33;100.00
19843;BME280;10082;51.038;6.992;2023-02-14T07:54:48;112169.53;;;-144.33;100.00
19843;BME280;10082;51.038;6.992;2023-02-14T07:57:20;112169.53;;;-144.33;100.00
19843;BME280;10082;51.038;6.992;2023-02-14T07:59:47;112171.53;;;-144.33;100.00
19843;BME280;10082;51.038;6.992;2023-02-14T08:02:14;112171.53;;;-144.33;100.00
19843;BME280;10082;51.038;6.992;2023-02-14T08:04:41;112171.53;;;-144.33;100.00
19843;BME280;10082;51.038;6.992;2023-02-14T08:07:08;112171.53;;;-144.33;100.00
19843;BME280;10082;51.038;6.992;2023-02-14T08:09:36;112171.53;;;-144.33;100.00
19843;BME280;10082;51.038;6.992;2023-02-14T08:12:03;112171.53;;;-144.33;100.00
19843;BME280;10082;51.038;6.992;2023-02-14T08:14:48;112171.53;;;-144.33;100.00
19843;BME280;10082;51.038;6.992;2023-02-14T08:17:15;112171.53;;;-144.33;100.00
19843;BME280;10082;51.038;6.992;2023-02-14T08:19:42;112171.53;;;-144.33;100.00
19843;BME280;10082;51.038;6.992;2023-02-14T08:22:09;112171.53;;;-144.33;100.00
19843;BME280;10082;51.038;6.992;2023-02-14T08:24:37;112171.53;;;-144.33;100.00
19843;BME280;10082;51.038;6.992;2023-02-14T08:27:04;112171.53;;;-144.33;100.00
19843;BME280;10082;51.038;6.992;2023-02-14T08:29:31;112171.53;;;-144.33;100.00
19843;BME280;10082;51.038;6.992;2023-02-14T08:31:58;112171.53;;;-144.33;100.00
19843;BME280;10082;51.038;6.992;2023-02-14T08:34:25;112171.53;;;-144.33;100.00
19843;BME280;10082;51.038;6.992;2023-02-14T08:36:53;112171.53;;;-144.33;100.00
19843;BME280;10082;51.038;6.992;2023-02-14T08:39:20;112171.53;;;-144.33;100.00
19843;BME280;10082;51.038;6.992;2023-02-14T08:41:49;112171.53;;;-144.33;100.00
19843;BME280;10082;51.038;6.992;2023-02-14T08:44:15;112171.53;;;-144.33;100.00
19843;BME280;10082;51.038;6.992;2023-02-14T08:46:43;112171.53;;;-144.33;100.00
19843;BME280;10082;51.038;6.992;2023-02-14T08:49:10;112171.53;;;-144.33;100.00
19843;BME280;10082;51.038;6.992;2023-02-14T08:51:46;112171.53;;;-144.33;100.00
19843;BME280;10082;51.038;6.992;2023-02-14T08:54:13;112171.53;;;-144.33;100.00
19843;BME280;10082;51.038;6.992;2023-02-14T08:56:40;112171.53;;;-144.33;100.00
19843;BME280;10082;51.038;6.992;2023-02-14T08:59:09;112171.53;;;-144.33;100.00
19843;BME280;10082;51.038;6.992;2023-02-14T09:01:36;112171.53;;;-144.33;100.00
19843;BME280;10082;51.038;6.992;2023-02-14T09:04:03;112171.53;;;-144.33;100.00
19843;BME280;10082;51.038;6.992;2023-02-14T09:06:30;112171.53;;;-144.33;100.00
19843;BME280;10082;51.038;6.992;2023-02-14T09:08:57;112171.53;;;-144.33;100.00
19843;BME280;10082;51.038;6.992;2023-02-14T09:11:24;112171.53;;;-144.33;100.00
19843;BME280;10082;51.038;6.992;2023-02-14T09:13:52;112171.53;;;-144.33;100.00
19843;BME280;10082;51.038;6.992;2023-02-14T09:16:21;112171.53;;;-144.33;100.00
19843;BME280;10082;51.038;6.992;2023-02-14T09:18:50;112171.53;;;-144.33;100.00
19843;BME280;10082;51.038;6.992;2023-02-14T09:21:19;112171.53;;;-144.33;100.00
19843;BME280;10082;51.038;6.992;2023-02-14T09:23:47;112171.53;;;-144.33;100.00
19843;BME280;10082;51.038;6.992;2023-02-14T09:26:15;112171.53;;;-144.33;100.00
19843;BME280;10082;51.038;6.992;2023-02-14T09:28:43;112171.53;;;-144.33;100.00
19843;BME280;10082;51.038;6.992;2023-02-14T09:31:12;112171.53;;;-144.33;100.00
19843;BME280;10082;51.038;6.992;2023-02-14T09:33:42;112171.53;;;-144.33;100.00
19843;BME280;10082;51.038;6.992;2023-02-14T09:36:26;112171.53;;;-144.33;100.00
19843;BME280;10082;51.038;6.992;2023-02-14T09:39:10;112171.53;;;-144.33;100.00
19843;BME280;10082;51.038;6.992;2023-02-14T09:41:51;112171.53;;;-144.33;100.00
19843;BME280;10082;51.038;6.992;2023-02-14T09:44:28;112171.53;;;-144.33;100.00
19843;BME280;10082;51.038;6.992;2023-02-14T09:47:01;112171.53;;;-144.33;100.00
19843;BME280;10082;51.038;6.992;2023-02-14T09:49:35;112171.53;;;-144.33;100.00
19843;BME280;10082;51.038;6.992;2023-02-14T09:52:08;112171.53;;;-144.33;98.36
19843;BME280;10082;51.038;6.992;2023-02-14T09:54:39;112171.53;;;-144.33;92.81
19843;BME280;10082;51.038;6.992;2023-02-14T09:57:12;112171.53;;;-144.33;88.54
19843;BME280;10082;51.038;6.992;2023-02-14T09:59:48;112171.53;;;-144.33;89.59
19843;BME280;10082;51.038;6.992;2023-02-14T10:02:37;112171.53;;;-144.33;90.33
19843;BME280;10082;51.038;6.992;2023-02-14T10:05:11;112171.53;;;-144.33;92.75
19843;BME280;10082;51.038;6.992;2023-02-14T10:07:48;112171.53;;;-144.33;93.73
19843;BME280;10082;51.038;6.992;2023-02-14T10:10:25;112171.53;;;-144.33;94.33
19843;BME280;10082;51.038;6.992;2023-02-14T10:13:00;112171.53;;;-144.33;95.53
19843;BME280;10082;51.038;6.992;2023-02-14T10:15:32;112171.53;;;-144.33;94.13
19843;BME280;10082;51.038;6.992;2023-02-14T10:18:04;112171.53;;;-144.33;90.49
19843;BME280;10082;51.038;6.992;2023-02-14T10:20:40;112171.53;;;-144.33;91.97
19843;BME280;10082;51.038;6.992;2023-02-14T10:23:20;112171.53;;;-144.33;92.50
19843;BME280;10082;51.038;6.992;2023-02-14T10:25:53;112171.53;;;-144.33;93.40
19843;BME280;10082;51.038;6.992;2023-02-14T10:28:29;112171.53;;;-144.33;91.52
19843;BME280;10082;51.038;6.992;2023-02-14T10:31:06;112171.53;;;-144.33;89.90
19843;BME280;10082;51.038;6.992;2023-02-14T10:33:41;112171.53;;;-144.33;85.02
19843;BME280;10082;51.038;6.992;2023-02-14T10:36:20;112171.53;;;-144.33;82.56
19843;BME280;10082;51.038;6.992;2023-02-14T10:38:56;112171.53;;;-144.33;84.83
19843;BME280;10082;51.038;6.992;2023-02-14T10:41:30;112171.53;;;-144.33;80.37
19843;BME280;10082;51.038;6.992;2023-02-14T10:44:11;112171.53;;;-144.33;79.53
19843;BME280;10082;51.038;6.992;2023-02-14T10:46:44;112171.53;;;-144.33;79.07
19843;BME280;10082;51.038;6.992;2023-02-14T10:49:26;112171.53;;;-144.33;77.51
19843;BME280;10082;51.038;6.992;2023-02-14T10:52:00;112171.53;;;-144.33;81.88
19843;BME280;10082;51.038;6.992;2023-02-14T10:54:36;112171.53;;;-144.33;85.44
19843;BME280;10082;51.038;6.992;2023-02-14T10:57:14;112171.53;;;-144.33;86.93
19843;BME280;10082;51.038;6.992;2023-02-14T10:59:48;112171.53;;;-144.33;89.02
19843;BME280;10082;51.038;6.992;2023-02-14T11:02:19;112171.53;;;-144.33;84.92
19843;BME280;10082;51.038;6.992;2023-02-14T11:04:48;112171.53;;;-144.33;86.97
19843;BME280;10082;51.038;6.992;2023-02-14T11:07:18;112171.53;;;-144.33;86.52
19843;BME280;10082;51.038;6.992;2023-02-14T11:09:46;112171.53;;;-144.33;84.95
19843;BME280;10082;51.038;6.992;2023-02-14T11:12:32;112171.53;;;-144.33;85.77
19843;BME280;10082;51.038;6.992;2023-02-14T11:15:25;112171.53;;;-144.33;84.69
19843;BME280;10082;51.038;6.992;2023-02-14T11:18:09;112171.53;;;-144.33;88.43
19843;BME280;10082;51.038;6.992;2023-02-14T11:20:41;112171.53;;;-144.33;89.47
19843;BME280;10082;51.038;6.992;2023-02-14T11:23:20;112171.53;;;-144.33;91.67
19843;BME280;10082;51.038;6.992;2023-02-14T11:25:51;112171.53;;;-144.33;95.57
19843;BME280;10082;51.038;6.992;2023-02-14T11:31:05;112171.53;;;-144.33;97.96
19843;BME280;10082;51.038;6.992;2023-02-14T11:33:38;112171.53;;;-144.33;97.93
19843;BME280;10082;51.038;6.992;2023-02-14T11:36:11;112171.53;;;-144.33;98.81
19843;BME280;10082;51.038;6.992;2023-02-14T11:38:40;112171.53;;;-144.33;96.55
19843;BME280;10082;51.038;6.992;2023-02-14T11:41:11;112171.53;;;-144.33;97.91
19843;BME280;10082;51.038;6.992;2023-02-14T11:43:41;112171.53;;;-144.33;98.32
19843;BME280;10082;51.038;6.992;2023-02-14T11:46:24;112171.53;;;-144.33;98.97
19843;BME280;10082;51.038;6.992;2023-02-14T11:48:57;112171.53;;;-144.33;96.94
19843;BME280;10082;51.038;6.992;2023-02-14T11:51:28;112171.53;;;-144.33;96.44
19843;BME280;10082;51.038;6.992;2023-02-14T11:53:58;112171.53;;;-144.33;95.82
19843;BME280;10082;51.038;6.992;2023-02-14T11:59:27;112171.53;;;-144.33;94.56
19843;BME280;10082;51.038;6.992;2023-02-14T12:01:56;112171.53;;;-144.33;93.99
19843;BME280;10082;51.038;6.992;2023-02-14T12:04:31;112171.53;;;-144.33;93.70
19843;BME280;10082;51.038;6.992;2023-02-14T12:07:13;112171.53;;;-144.33;94.50
19843;BME280;10082;51.038;6.992;2023-02-14T12:09:42;112171.53;;;-144.33;95.12
19843;BME280;10082;51.038;6.992;2023-02-14T12:12:16;112171.53;;;-144.33;94.19
19843;BME280;10082;51.038;6.992;2023-02-14T12:14:44;112171.53;;;-144.33;93.31
19843;BME280;10082;51.038;6.992;2023-02-14T12:17:24;112171.53;;;-144.33;92.61
19843;BME280;10082;51.038;6.992;2023-02-14T12:19:59;112171.53;;;-144.33;91.35
19843;BME280;10082;51.038;6.992;2023-02-14T12:22:31;112171.53;;;-144.33;92.06
19843;BME280;10082;51.038;6.992;2023-02-14T12:25:05;112171.53;;;-144.33;90.86
19843;BME280;10082;51.038;6.992;2023-02-14T12:27:42;112171.53;;;-144.33;88.70
19843;BME280;10082;51.038;6.992;2023-02-14T12:30:15;112171.53;;;-144.33;90.27
19843;BME280;10082;51.038;6.992;2023-02-14T12:32:46;112171.53;;;-144.33;87.69
19843;BME280;10082;51.038;6.992;2023-02-14T12:35:16;112171.53;;;-144.33;87.07
19843;BME280;10082;51.038;6.992;2023-02-14T12:37:50;112171.53;;;-144.33;85.99
19843;BME280;10082;51.038;6.992;2023-02-14T12:40:28;112171.53;;;-144.33;84.76
19843;BME280;10082;51.038;6.992;2023-02-14T12:43:21;112171.53;;;-144.33;84.09
19843;BME280;10082;51.038;6.992;2023-02-14T12:46:13;112171.53;;;-144.33;84.04
19843;BME280;10082;51.038;6.992;2023-02-14T12:48:56;112171.53;;;-144.33;85.47
19843;BME280;10082;51.038;6.992;2023-02-14T12:51:30;112171.53;;;-144.33;86.26
19843;BME280;10082;51.038;6.992;2023-02-14T12:54:07;112171.53;;;-144.33;84.64
19843;BME280;10082;51.038;6.992;2023-02-14T12:56:48;112171.53;;;-144.33;83.47
19843;BME280;10082;51.038;6.992;2023-02-14T12:59:27;112171.53;;;-144.33;80.68
19843;BME280;10082;51.038;6.992;2023-02-14T13:02:32;112171.53;;;-144.33;79.61
19843;BME280;10082;51.038;6.992;2023-02-14T13:05:13;112171.53;;;-144.33;79.02